Cylinder, Iowa
Current Conditions -  °F | °C
As of 7:35 AM on Friday 24 Oct 2014 (Local Time) from KAXA Reporting Station
Clear Clear  
Wind Chill: 12°   Ceiling: Unl
Heat Index: 12°   Visibility: 9mi
Dew Point: 11°   Wind: 14mph
Humidity: 94%   Direction: 170°S
Pressure: 29.88"   Gusts: NA
Location:  43.09°N, 94.55°W
Report Text: KAXA 241235Z AUTO 17012KT 9SM CLR 12/11 A2988 RMK AO2
Loading
Personal Weather Stations






























Interactive Weather Map
Tropical Storm Tracking
New forecast layout! Learn more

10-Day Weather Forecast

Advertisements
Track Severe Weather on mobile